Time;durP1;ratioP1;P1;durP2;ratioP2;P2;SDS_P1;SDS_P2;PMS_P1;PMS_P2;Temp;Humidity;BMP_temperature;BMP_pressure;BME280_temperature;BME280_humidity;BME280_pressure;Samples;Min_cycle;Max_cycle;Signal;HPM_P1;HPM_P2
2024/02/04 00:01:59;;;;;;;13.25;5.50;;;14.50;71.40;16.00;102117.00;;;;5053005;28;20226;-73
2024/02/04 00:04:28;;;;;;;6.88;5.07;;;14.50;71.40;16.00;102117.00;;;;5053357;28;20219;-72
2024/02/04 00:06:55;;;;;;;11.40;4.95;;;14.50;71.40;16.00;102119.00;;;;5052618;28;20202;-72
2024/02/04 00:09:22;;;;;;;8.73;4.63;;;14.50;71.40;16.00;102128.00;;;;5052488;28;20293;-76
2024/02/04 00:11:50;;;;;;;15.93;5.72;;;14.50;71.40;16.00;102132.00;;;;5053461;28;20665;-74
2024/02/04 00:14:17;;;;;;;9.93;5.50;;;14.50;71.40;16.00;102133.00;;;;5053506;28;20199;-73
2024/02/04 00:16:44;;;;;;;10.80;5.63;;;14.50;71.50;16.00;102136.00;;;;5053312;28;20197;-73
2024/02/04 00:19:11;;;;;;;9.65;5.53;;;14.50;71.50;16.00;102130.00;;;;5053601;28;20219;-74
2024/02/04 00:21:40;;;;;;;11.40;5.75;;;14.50;71.70;16.00;102130.00;;;;5053283;28;20187;-73
2024/02/04 00:24:08;;;;;;;15.65;6.13;;;14.50;71.60;16.00;102130.00;;;;5053374;28;20224;-73
2024/02/04 00:26:35;;;;;;;13.73;5.57;;;14.50;71.60;16.00;102139.00;;;;5055967;28;20277;-72
2024/02/04 00:29:02;;;;;;;12.32;5.97;;;14.40;71.60;16.00;102133.00;;;;5059109;28;20210;-73
2024/02/04 00:31:29;;;;;;;11.80;6.78;;;14.50;71.70;16.00;102138.00;;;;5052794;28;20694;-73
2024/02/04 00:33:56;;;;;;;11.70;6.55;;;14.50;71.80;16.00;102120.00;;;;5053696;28;20218;-72
2024/02/04 00:36:23;;;;;;;10.05;5.72;;;14.50;71.90;16.00;102136.00;;;;5051709;28;20653;-73
2024/02/04 00:38:51;;;;;;;10.52;6.55;;;14.50;71.90;16.00;102130.00;;;;5052715;28;20564;-73
2024/02/04 00:41:18;;;;;;;10.52;5.68;;;14.50;71.90;16.00;102136.00;;;;5051716;28;20220;-74
2024/02/04 00:43:45;;;;;;;11.52;5.88;;;14.50;72.00;16.00;102131.00;;;;5052074;28;20211;-73
2024/02/04 00:46:12;;;;;;;8.90;5.38;;;14.50;72.00;16.00;102139.00;;;;5051370;28;20199;-72
2024/02/04 00:48:41;;;;;;;9.25;5.40;;;14.50;72.00;16.00;102138.00;;;;5052011;28;20590;-73
2024/02/04 00:51:08;;;;;;;10.85;5.38;;;14.60;72.00;16.00;102132.00;;;;5053224;28;20250;-72
2024/02/04 00:53:36;;;;;;;11.82;5.22;;;14.50;71.90;16.00;102128.00;;;;5052637;28;20574;-73
2024/02/04 00:56:05;;;;;;;12.48;5.32;;;14.60;71.90;16.00;102119.00;;;;5053480;28;20202;-72
2024/02/04 00:58:32;;;;;;;7.55;4.72;;;14.60;71.90;16.10;102130.00;;;;5072112;28;20210;-72
2024/02/04 01:00:59;;;;;;;8.98;4.60;;;14.60;71.90;16.10;102127.00;;;;5061762;28;20203;-72
2024/02/04 01:03:26;;;;;;;12.10;4.70;;;14.60;71.90;16.10;102121.00;;;;5052270;28;20226;-72
2024/02/04 01:05:53;;;;;;;7.97;4.22;;;14.60;71.80;16.10;102115.00;;;;5049494;28;20630;-72
2024/02/04 01:08:21;;;;;;;8.60;4.55;;;14.60;71.80;16.10;102118.00;;;;5041830;28;20204;-72
2024/02/04 01:10:50;;;;;;;9.45;5.00;;;14.60;71.80;16.10;102113.00;;;;5042924;28;20223;-72
2024/02/04 01:13:19;;;;;;;7.90;4.47;;;14.60;71.80;16.10;102115.00;;;;5052610;28;20203;-72
2024/02/04 01:15:46;;;;;;;9.18;5.32;;;14.70;71.80;16.10;102120.00;;;;5053061;28;20203;-73
2024/02/04 01:18:13;;;;;;;8.80;4.50;;;14.60;71.70;16.10;102127.00;;;;5052452;28;20200;-72
2024/02/04 01:20:40;;;;;;;8.25;4.57;;;14.70;71.70;16.10;102120.00;;;;5052529;28;20214;-74
2024/02/04 01:23:08;;;;;;;8.85;4.57;;;14.70;71.70;16.10;102105.00;;;;5052322;28;20759;-72
2024/02/04 01:25:35;;;;;;;7.63;4.57;;;14.70;71.60;16.10;102110.00;;;;5052340;28;20291;-72
2024/02/04 01:28:02;;;;;;;8.50;4.13;;;14.60;71.50;16.10;102110.00;;;;5052757;28;20642;-72
2024/02/04 01:30:31;;;;;;;9.90;4.38;;;14.60;71.40;16.10;102105.00;;;;5050971;28;20279;-73
2024/02/04 01:32:58;;;;;;;8.82;4.80;;;14.60;71.40;16.10;102109.00;;;;5051887;28;20214;-72
2024/02/04 01:35:25;;;;;;;8.07;4.00;;;14.60;71.40;16.10;102106.00;;;;5051374;28;20334;-73
2024/02/04 01:37:52;;;;;;;6.78;4.18;;;14.60;71.40;16.10;102113.00;;;;5052074;28;20208;-72
2024/02/04 01:40:19;;;;;;;11.25;3.80;;;14.60;71.30;16.10;102107.00;;;;5052427;28;20306;-73
2024/02/04 01:42:46;;;;;;;9.68;4.50;;;14.60;71.30;16.10;102115.00;;;;5052329;28;20212;-72
2024/02/04 01:45:13;;;;;;;8.55;3.90;;;14.60;71.30;16.10;102114.00;;;;5052177;28;20230;-73
2024/02/04 01:47:42;;;;;;;7.75;4.30;;;14.60;71.30;16.10;102102.00;;;;5052045;28;20223;-72
2024/02/04 01:50:11;;;;;;;11.02;4.97;;;14.60;71.30;16.10;102108.00;;;;5054702;28;20633;-73
2024/02/04 01:52:41;;;;;;;13.52;5.22;;;14.60;71.30;16.10;102111.00;;;;5051031;28;20195;-72
2024/02/04 01:55:09;;;;;;;9.43;5.00;;;14.60;71.30;16.10;102112.00;;;;5050873;28;20195;-72
2024/02/04 01:57:36;;;;;;;8.82;4.75;;;14.60;71.30;16.10;102107.00;;;;5051986;28;20693;-72
2024/02/04 02:00:05;;;;;;;9.30;4.22;;;14.60;71.30;16.10;102116.00;;;;5052060;28;20196;-72
2024/02/04 02:02:35;;;;;;;7.57;4.22;;;14.60;71.30;16.10;102119.00;;;;5051800;28;20207;-72
2024/02/04 02:05:03;;;;;;;12.40;5.45;;;14.60;71.30;16.10;102121.00;;;;5051923;28;20285;-72
2024/02/04 02:07:31;;;;;;;7.80;4.47;;;14.50;71.20;16.10;102117.00;;;;5051719;28;20188;-72
2024/02/04 02:09:58;;;;;;;12.50;4.75;;;14.60;71.20;16.10;102118.00;;;;5051734;28;20206;-72
2024/02/04 02:12:27;;;;;;;9.35;4.13;;;14.60;71.20;16.10;102114.00;;;;5051855;28;20279;-73
2024/02/04 02:15:03;;;;;;;9.63;4.53;;;14.50;71.20;16.00;102110.00;;;;5051907;28;20687;-72
2024/02/04 02:17:40;;;;;;;9.57;4.60;;;14.60;71.20;16.00;102129.00;;;;5051308;28;20563;-73
2024/02/04 02:20:21;;;;;;;10.43;4.78;;;14.50;71.10;16.00;102121.00;;;;5050269;28;20205;-72
2024/02/04 02:22:52;;;;;;;8.82;5.00;;;14.50;71.10;16.00;102116.00;;;;5050959;28;20227;-73
2024/02/04 02:25:23;;;;;;;8.90;6.38;;;14.50;71.10;16.00;102113.00;;;;5051475;28;20219;-73
2024/02/04 02:27:51;;;;;;;10.65;5.38;;;14.50;71.10;16.00;102112.00;;;;5051220;28;20206;-73
2024/02/04 02:30:19;;;;;;;11.00;5.88;;;14.50;71.20;16.00;102097.00;;;;5051151;28;20286;-72
2024/02/04 02:32:49;;;;;;;11.48;6.00;;;14.50;71.20;16.00;102104.00;;;;5050287;28;20203;-72
2024/02/04 02:35:17;;;;;;;10.27;6.10;;;14.50;71.20;16.00;102104.00;;;;5051254;28;20207;-73
2024/02/04 02:37:56;;;;;;;10.80;5.75;;;14.50;71.30;16.00;102094.00;;;;5050986;28;20279;-72
2024/02/04 02:40:31;;;;;;;14.00;6.57;;;14.50;71.30;16.00;102099.00;;;;5050969;28;20216;-74
2024/02/04 02:43:02;;;;;;;8.95;6.15;;;14.50;71.30;16.00;102098.00;;;;5050524;28;20199;-73
2024/02/04 02:45:31;;;;;;;10.02;5.60;;;14.50;71.20;16.00;102096.00;;;;5051066;28;20223;-73
2024/02/04 02:48:00;;;;;;;12.93;6.43;;;14.50;71.20;16.00;102096.00;;;;5048146;28;20231;-72
2024/02/04 02:50:29;;;;;;;7.88;5.28;;;14.50;71.20;16.00;102090.00;;;;5062858;28;20690;-72
2024/02/04 02:52:56;;;;;;;9.80;5.38;;;14.50;71.20;16.00;102092.00;;;;5051283;28;20231;-73
2024/02/04 02:55:24;;;;;;;10.88;4.68;;;14.50;71.20;16.00;102092.00;;;;5051350;28;20215;-72
2024/02/04 02:57:51;;;;;;;9.10;5.43;;;14.50;71.20;16.00;102093.00;;;;5051629;28;20192;-73
2024/02/04 03:00:19;;;;;;;8.23;5.15;;;14.50;71.20;15.90;102105.00;;;;5050853;28;20199;-72
2024/02/04 03:02:47;;;;;;;9.32;5.40;;;14.50;71.10;15.90;102095.00;;;;5049717;28;20206;-74
2024/02/04 03:05:16;;;;;;;11.40;4.78;;;14.40;71.00;15.90;102104.00;;;;5050961;28;20215;-73
2024/02/04 03:07:43;;;;;;;9.35;5.53;;;14.40;70.90;15.90;102106.00;;;;5050227;28;20564;-75
2024/02/04 03:10:11;;;;;;;8.18;4.70;;;14.40;70.80;15.80;102106.00;;;;5050980;28;20278;-72
2024/02/04 03:12:39;;;;;;;7.25;4.40;;;14.40;70.80;15.80;102116.00;;;;5050805;28;20291;-72
2024/02/04 03:15:07;;;;;;;11.88;4.28;;;14.40;70.80;15.80;102107.00;;;;5051179;28;20188;-72
2024/02/04 03:17:35;;;;;;;8.57;3.97;;;14.40;70.70;15.80;102103.00;;;;5048339;28;20214;-72
2024/02/04 03:20:02;;;;;;;6.20;4.50;;;14.40;70.70;15.80;102112.00;;;;5051224;28;20563;-72
2024/02/04 03:22:29;;;;;;;8.30;4.47;;;14.30;70.60;15.70;102094.00;;;;5050670;28;20196;-73
2024/02/04 03:24:56;;;;;;;8.02;4.00;;;14.30;70.60;15.70;102091.00;;;;5050583;28;20230;-72
2024/02/04 03:27:23;;;;;;;8.40;4.07;;;14.30;70.50;15.70;102094.00;;;;5051366;28;20302;-73
2024/02/04 03:29:51;;;;;;;7.68;4.05;;;14.30;70.50;15.70;102088.00;;;;5050208;28;20291;-72
2024/02/04 03:32:18;;;;;;;9.10;4.15;;;14.30;70.50;15.70;102101.00;;;;5050312;28;20200;-73
2024/02/04 03:34:45;;;;;;;5.35;3.95;;;14.20;70.50;15.60;102100.00;;;;5049646;28;20204;-73
2024/02/04 03:37:12;;;;;;;15.23;4.60;;;14.30;70.50;15.60;102089.00;;;;5051290;28;20194;-72
2024/02/04 03:39:39;;;;;;;11.40;4.00;;;14.20;70.50;15.60;102087.00;;;;5051157;28;20208;-72
2024/02/04 03:42:06;;;;;;;8.50;4.03;;;14.20;70.50;15.60;102077.00;;;;5041593;28;20207;-73
2024/02/04 03:44:33;;;;;;;8.50;3.65;;;14.20;70.50;15.60;102082.00;;;;5054319;28;20576;-72
2024/02/04 03:47:03;;;;;;;6.75;4.43;;;14.20;70.60;15.60;102081.00;;;;5053927;28;20235;-72
2024/02/04 03:49:30;;;;;;;9.55;4.30;;;14.20;70.60;15.60;102095.00;;;;5054845;28;20223;-73
2024/02/04 03:51:57;;;;;;;6.65;3.67;;;14.10;70.60;15.60;102094.00;;;;5053448;28;20224;-72
2024/02/04 03:54:24;;;;;;;9.48;3.75;;;14.10;70.60;15.60;102101.00;;;;5054280;28;20680;-72
2024/02/04 03:56:51;;;;;;;5.97;3.58;;;14.10;70.60;15.60;102095.00;;;;5054280;28;20203;-72
2024/02/04 03:59:18;;;;;;;8.32;4.32;;;14.10;70.60;15.60;102100.00;;;;5054493;28;20208;-72
2024/02/04 04:01:49;;;;;;;7.82;3.10;;;14.10;70.60;15.50;102110.00;;;;5054306;28;20195;-72
2024/02/04 04:04:17;;;;;;;8.45;3.78;;;14.10;70.60;15.60;102127.00;;;;5054036;28;20640;-72
2024/02/04 04:06:46;;;;;;;5.88;3.30;;;14.10;70.60;15.60;102109.00;;;;5053495;28;20196;-73
2024/02/04 04:09:14;;;;;;;7.25;3.50;;;14.10;70.60;15.60;102105.00;;;;5054395;28;20200;-72
2024/02/04 04:11:41;;;;;;;4.63;2.92;;;14.10;70.60;15.60;102098.00;;;;5051068;28;20238;-72
2024/02/04 04:14:08;;;;;;;5.25;3.45;;;14.10;70.60;15.60;102088.00;;;;5034111;28;20196;-72
2024/02/04 04:16:35;;;;;;;5.95;2.67;;;14.10;70.60;15.60;102086.00;;;;5052485;28;20214;-73
2024/02/04 04:19:02;;;;;;;7.43;3.00;;;14.10;70.60;15.60;102086.00;;;;5053677;28;20206;-72
2024/02/04 04:21:30;;;;;;;9.48;3.20;;;14.10;70.50;15.60;102086.00;;;;5053786;28;20276;-73
2024/02/04 04:23:57;;;;;;;5.60;2.92;;;14.10;70.50;15.60;102085.00;;;;5049194;28;20287;-72
2024/02/04 04:26:24;;;;;;;6.10;2.90;;;14.10;70.50;15.60;102073.00;;;;5054052;28;20588;-72
2024/02/04 04:28:51;;;;;;;6.82;3.28;;;14.00;70.30;15.60;102080.00;;;;5057811;28;20187;-72
2024/02/04 04:31:18;;;;;;;6.57;2.65;;;14.00;70.30;15.50;102073.00;;;;5068609;28;20568;-72
2024/02/04 04:33:46;;;;;;;8.38;3.78;;;14.00;70.30;15.60;102071.00;;;;5053332;28;20669;-73
2024/02/04 04:36:13;;;;;;;4.85;2.88;;;14.00;70.30;15.50;102075.00;;;;5058331;28;20206;-73
2024/02/04 04:38:41;;;;;;;7.18;3.58;;;14.00;70.30;15.50;102069.00;;;;5057030;28;20223;-72
2024/02/04 04:41:08;;;;;;;8.68;3.65;;;13.90;70.30;15.50;102076.00;;;;5053030;28;20298;-72
2024/02/04 04:43:38;;;;;;;6.38;3.45;;;13.90;70.20;15.40;102071.00;;;;5053165;28;20202;-72
2024/02/04 04:46:05;;;;;;;8.48;4.00;;;14.00;70.30;15.50;102078.00;;;;5053229;28;20230;-72
2024/02/04 04:48:32;;;;;;;10.27;3.75;;;13.90;70.30;15.50;102069.00;;;;5053081;28;20323;-72
2024/02/04 04:50:59;;;;;;;7.05;3.28;;;13.90;70.40;15.40;102062.00;;;;5053778;28;20188;-71
2024/02/04 04:53:26;;;;;;;6.93;3.60;;;13.90;70.40;15.40;102054.00;;;;5052162;28;20204;-72
2024/02/04 04:55:55;;;;;;;5.72;3.08;;;13.90;70.50;15.40;102054.00;;;;5053435;28;20664;-72
2024/02/04 04:58:22;;;;;;;6.68;3.10;;;13.80;70.40;15.40;102047.00;;;;5052964;28;20713;-73
2024/02/04 05:00:49;;;;;;;6.65;3.50;;;13.90;70.50;15.40;102047.00;;;;5053023;28;20204;-72
2024/02/04 05:03:16;;;;;;;6.88;3.60;;;13.80;70.50;15.40;102048.00;;;;5052460;28;20403;-71
2024/02/04 05:05:43;;;;;;;7.40;3.45;;;13.80;70.60;15.40;102045.00;;;;5052146;28;20246;-73
2024/02/04 05:08:10;;;;;;;6.72;3.10;;;13.80;70.60;15.40;102051.00;;;;5053275;28;20249;-72
2024/02/04 05:10:37;;;;;;;4.03;2.75;;;13.80;70.60;15.40;102049.00;;;;5052986;28;20202;-73
2024/02/04 05:13:06;;;;;;;6.75;3.58;;;13.80;70.70;15.40;102050.00;;;;5051940;28;20225;-72
2024/02/04 05:15:34;;;;;;;5.40;3.17;;;13.80;70.70;15.40;102049.00;;;;5052575;28;20639;-72
2024/02/04 05:18:01;;;;;;;6.60;3.88;;;13.80;70.80;15.50;102041.00;;;;5052273;28;20223;-72
2024/02/04 05:20:28;;;;;;;6.28;3.63;;;13.80;70.80;15.50;102050.00;;;;5052834;28;20196;-71
2024/02/04 05:22:57;;;;;;;6.18;3.53;;;13.80;70.90;15.40;102051.00;;;;5052871;28;20215;-71
2024/02/04 05:25:25;;;;;;;6.93;3.85;;;13.80;70.80;15.40;102059.00;;;;5052904;28;20297;-71
2024/02/04 05:27:52;;;;;;;6.22;3.30;;;13.80;71.40;15.40;102053.00;;;;5052815;28;20230;-71
2024/02/04 05:30:21;;;;;;;7.13;4.03;;;13.80;71.40;15.40;102051.00;;;;5052329;28;20204;-72
2024/02/04 05:32:48;;;;;;;4.97;3.63;;;13.80;70.70;15.40;102048.00;;;;5052046;28;20207;-72
2024/02/04 05:35:15;;;;;;;7.93;3.88;;;13.80;70.70;15.30;102048.00;;;;5051392;28;20291;-72
2024/02/04 05:37:42;;;;;;;8.80;4.25;;;13.80;70.60;15.30;102034.00;;;;5052931;28;20192;-73
2024/02/04 05:40:09;;;;;;;10.57;3.92;;;13.80;70.70;15.30;102027.00;;;;5052260;28;20262;-71
2024/02/04 05:42:36;;;;;;;7.15;3.60;;;13.80;70.70;15.30;102022.00;;;;5050736;28;20286;-72
2024/02/04 05:45:06;;;;;;;8.25;3.67;;;13.80;70.70;15.30;102029.00;;;;5051300;28;20222;-72
2024/02/04 05:47:35;;;;;;;4.82;3.85;;;13.80;70.70;15.30;102020.00;;;;5051679;28;20594;-72
2024/02/04 05:50:02;;;;;;;5.38;3.35;;;13.80;70.80;15.40;102023.00;;;;5051805;28;20677;-73
2024/02/04 05:52:29;;;;;;;5.63;2.97;;;13.80;70.80;15.40;102029.00;;;;5050708;28;20202;-72
2024/02/04 05:54:56;;;;;;;8.45;3.58;;;13.80;70.80;15.40;102040.00;;;;5050807;28;20771;-74
2024/02/04 05:57:23;;;;;;;7.10;4.20;;;13.80;70.90;15.40;102031.00;;;;5051396;28;20188;-72
2024/02/04 05:59:52;;;;;;;7.47;4.82;;;13.80;70.90;15.40;102025.00;;;;5052270;28;20652;-72
2024/02/04 06:02:19;;;;;;;7.05;4.75;;;13.80;70.90;15.40;102018.00;;;;5048426;28;20675;-72
2024/02/04 06:04:48;;;;;;;10.15;5.80;;;13.80;70.90;15.40;102028.00;;;;5049508;28;20227;-72
2024/02/04 06:07:15;;;;;;;12.27;6.80;;;13.80;71.00;15.40;102016.00;;;;5051659;28;20203;-72
2024/02/04 06:09:42;;;;;;;9.20;6.10;;;13.80;71.10;15.40;102007.00;;;;5051318;28;20199;-72
2024/02/04 06:12:09;;;;;;;13.13;6.40;;;13.80;71.20;15.40;101990.00;;;;5059464;28;20203;-72
2024/02/04 06:14:39;;;;;;;6.65;5.40;;;13.80;71.20;15.40;101993.00;;;;5051541;28;20195;-72
2024/02/04 06:17:08;;;;;;;9.68;6.82;;;13.80;71.30;15.40;101997.00;;;;5051598;28;20208;-72
2024/02/04 06:19:35;;;;;;;9.00;6.43;;;13.80;71.40;15.40;101989.00;;;;5044576;28;20287;-72
2024/02/04 06:22:04;;;;;;;9.45;7.20;;;13.80;71.40;15.40;101989.00;;;;5047329;28;20196;-72
2024/02/04 06:24:31;;;;;;;12.00;7.05;;;13.80;71.50;15.40;101990.00;;;;5050947;28;20192;-73
2024/02/04 06:26:58;;;;;;;9.70;7.78;;;13.80;71.50;15.40;101988.00;;;;5051260;28;20200;-72
2024/02/04 06:29:25;;;;;;;10.43;7.22;;;13.80;71.50;15.40;101989.00;;;;5050429;28;20223;-72
2024/02/04 06:31:52;;;;;;;9.52;7.60;;;13.90;71.60;15.40;101994.00;;;;5049225;28;20207;-72
2024/02/04 06:34:19;;;;;;;10.75;7.53;;;13.90;71.70;15.50;101994.00;;;;5046376;28;20200;-73
2024/02/04 06:36:46;;;;;;;10.23;8.18;;;13.90;71.70;15.50;101988.00;;;;5047804;28;20206;-73
2024/02/04 06:39:15;;;;;;;9.73;8.05;;;13.90;71.70;15.50;101988.00;;;;5047864;28;20202;-72
2024/02/04 06:41:42;;;;;;;12.43;7.97;;;13.90;71.70;15.50;101970.00;;;;5048017;28;20207;-73
2024/02/04 06:44:11;;;;;;;12.63;9.38;;;13.90;71.80;15.50;101980.00;;;;5051355;28;20302;-73
2024/02/04 06:46:38;;;;;;;15.13;8.95;;;13.90;71.70;15.50;101988.00;;;;5050628;28;20219;-72
2024/02/04 06:49:06;;;;;;;10.80;7.13;;;13.90;71.80;15.40;101986.00;;;;5049984;28;20219;-73
2024/02/04 06:51:33;;;;;;;11.93;7.45;;;13.90;71.70;15.40;101982.00;;;;5049578;28;20249;-72
2024/02/04 06:54:00;;;;;;;13.15;7.32;;;13.90;71.70;15.50;101970.00;;;;5050298;28;20270;-75
2024/02/04 06:56:29;;;;;;;7.68;6.85;;;13.90;71.80;15.50;101977.00;;;;5050735;28;20604;-73
2024/02/04 06:58:56;;;;;;;11.02;6.43;;;14.00;71.80;15.50;101985.00;;;;5049900;28;20195;-72
2024/02/04 07:01:23;;;;;;;8.90;5.63;;;13.90;71.80;15.50;101979.00;;;;5051099;28;20196;-72
2024/02/04 07:03:51;;;;;;;9.13;6.05;;;14.00;71.80;15.50;101987.00;;;;5051071;28;20188;-73
2024/02/04 07:06:18;;;;;;;10.98;5.57;;;14.00;71.80;15.50;101988.00;;;;5051420;28;20215;-72
2024/02/04 07:08:45;;;;;;;9.68;5.30;;;14.00;71.80;15.50;101988.00;;;;5051513;28;20206;-72
2024/02/04 07:11:12;;;;;;;8.40;5.30;;;14.00;71.80;15.50;101986.00;;;;5050085;28;20288;-72
2024/02/04 07:13:41;;;;;;;6.65;4.70;;;14.00;71.80;15.50;101992.00;;;;5050281;28;20206;-72
2024/02/04 07:16:08;;;;;;;11.68;5.75;;;14.00;71.80;15.50;101989.00;;;;5052601;28;20286;-72
2024/02/04 07:18:35;;;;;;;5.75;4.15;;;14.00;71.80;15.60;101984.00;;;;5054699;28;20657;-71
2024/02/04 07:21:02;;;;;;;8.60;5.10;;;14.00;71.80;15.60;101985.00;;;;5052269;28;20211;-72
2024/02/04 07:23:29;;;;;;;8.43;4.75;;;14.00;71.80;15.60;101972.00;;;;5053977;28;20196;-72
2024/02/04 07:25:56;;;;;;;6.40;4.35;;;14.00;71.80;15.60;101973.00;;;;5054697;28;20219;-72
2024/02/04 07:28:23;;;;;;;7.55;4.00;;;14.10;71.80;15.60;101963.00;;;;5054404;28;20649;-72
2024/02/04 07:30:51;;;;;;;5.47;4.18;;;14.10;71.80;15.60;101971.00;;;;5054344;28;20198;-72
2024/02/04 07:33:18;;;;;;;6.63;3.88;;;14.10;71.80;15.60;101981.00;;;;5052884;28;20188;-72
2024/02/04 07:35:46;;;;;;;13.20;4.80;;;14.00;71.70;15.60;101988.00;;;;5051147;28;20298;-70
2024/02/04 07:38:13;;;;;;;6.65;3.85;;;14.00;71.80;15.60;101989.00;;;;5053505;28;20199;-70
2024/02/04 07:40:40;;;;;;;8.40;3.88;;;14.10;71.80;15.60;101983.00;;;;5053467;28;20227;-70
2024/02/04 07:43:07;;;;;;;8.27;4.88;;;14.10;71.80;15.60;101985.00;;;;5054415;28;20249;-70
2024/02/04 07:45:35;;;;;;;10.63;5.88;;;14.10;71.80;15.70;101986.00;;;;5053573;28;20712;-70
2024/02/04 07:48:04;;;;;;;9.45;5.00;;;14.10;71.70;15.60;101979.00;;;;5053751;28;20223;-70
2024/02/04 07:50:31;;;;;;;7.20;5.00;;;14.10;71.70;15.70;101986.00;;;;5031851;28;20203;-70
2024/02/04 07:52:58;;;;;;;11.52;5.00;;;14.10;71.70;15.70;101998.00;;;;5052058;28;20290;-72
2024/02/04 07:55:25;;;;;;;7.57;4.57;;;14.10;71.70;15.70;101993.00;;;;5051759;28;20208;-73
2024/02/04 07:57:52;;;;;;;8.07;4.60;;;14.10;71.70;15.70;101992.00;;;;5047470;28;20631;-72
2024/02/04 08:00:20;;;;;;;7.47;4.45;;;14.10;71.70;15.70;101988.00;;;;5049086;28;20286;-72
2024/02/04 08:02:47;;;;;;;7.75;4.32;;;14.10;71.70;15.70;101980.00;;;;5053739;28;20732;-72
2024/02/04 08:05:16;;;;;;;9.32;4.70;;;14.20;71.70;15.70;101973.00;;;;5050821;28;20315;-72
2024/02/04 08:07:43;;;;;;;9.98;4.75;;;14.20;71.60;15.70;101976.00;;;;5053729;28;20203;-72
2024/02/04 08:10:10;;;;;;;5.55;3.50;;;14.20;71.60;15.70;101983.00;;;;5053901;28;20671;-72
2024/02/04 08:12:37;;;;;;;8.88;4.28;;;14.20;71.60;15.70;101983.00;;;;5052519;28;20660;-72
2024/02/04 08:15:06;;;;;;;6.30;3.88;;;14.20;71.60;15.70;101976.00;;;;5051500;28;20195;-72
2024/02/04 08:17:33;;;;;;;7.82;4.45;;;14.20;71.60;15.70;101974.00;;;;5050841;28;20188;-72
2024/02/04 08:20:00;;;;;;;6.85;3.75;;;14.20;71.50;15.70;101979.00;;;;5051191;28;20200;-72
2024/02/04 08:22:28;;;;;;;8.32;3.50;;;14.20;71.50;15.70;101979.00;;;;5051285;28;20198;-72
2024/02/04 08:24:55;;;;;;;8.43;3.58;;;14.20;71.50;15.70;101973.00;;;;5049132;28;20650;-72
2024/02/04 08:27:22;;;;;;;4.78;3.25;;;14.20;71.50;15.70;101968.00;;;;5041603;28;20231;-72
2024/02/04 08:29:49;;;;;;;7.90;3.30;;;14.20;71.50;15.70;101964.00;;;;5043425;28;20200;-72
2024/02/04 08:32:16;;;;;;;4.63;2.95;;;14.20;71.50;15.70;101973.00;;;;5052038;28;20297;-72
2024/02/04 08:34:43;;;;;;;5.00;2.40;;;14.20;71.50;15.70;101966.00;;;;5051027;28;20282;-72
2024/02/04 08:37:10;;;;;;;6.03;2.67;;;14.20;71.50;15.70;101961.00;;;;5038089;28;20202;-72
2024/02/04 08:39:39;;;;;;;4.53;2.83;;;14.20;71.50;15.70;101958.00;;;;5052888;28;20565;-71
2024/02/04 08:42:06;;;;;;;3.58;2.58;;;14.20;71.50;15.70;101966.00;;;;5051810;28;20206;-73
2024/02/04 08:44:33;;;;;;;6.22;2.45;;;14.20;71.40;15.70;101963.00;;;;5049048;28;20206;-70
2024/02/04 08:47:00;;;;;;;7.78;3.17;;;14.20;71.50;15.80;101969.00;;;;5051893;28;20238;-70
2024/02/04 08:49:27;;;;;;;4.07;3.10;;;14.20;71.50;15.80;101962.00;;;;5051865;28;20282;-70
2024/02/04 08:51:54;;;;;;;6.55;3.50;;;14.20;71.50;15.80;101952.00;;;;5051744;28;20206;-70
2024/02/04 08:54:21;;;;;;;4.78;3.00;;;14.20;71.50;15.80;101958.00;;;;5052911;28;20572;-71
2024/02/04 08:56:50;;;;;;;6.50;3.72;;;14.20;71.50;15.80;101953.00;;;;5052568;28;20204;-70
2024/02/04 08:59:17;;;;;;;4.60;3.40;;;14.20;71.60;15.80;101952.00;;;;5049472;28;20200;-70
2024/02/04 09:01:44;;;;;;;6.25;3.95;;;14.20;71.60;15.80;101953.00;;;;5054387;28;20199;-72
2024/02/04 09:04:11;;;;;;;7.03;4.15;;;14.20;71.70;15.80;101964.00;;;;5047704;28;20196;-70
2024/02/04 09:06:38;;;;;;;6.22;4.20;;;14.20;71.60;15.80;101960.00;;;;5052200;28;20223;-70
2024/02/04 09:09:05;;;;;;;6.50;3.42;;;14.20;71.70;15.80;101952.00;;;;5051982;28;20365;-69
2024/02/04 09:11:32;;;;;;;5.85;3.33;;;14.20;71.70;15.80;101952.00;;;;5050812;28;20291;-70
2024/02/04 09:14:00;;;;;;;6.15;3.33;;;14.30;71.80;15.90;101954.00;;;;5052028;28;20205;-69
2024/02/04 09:16:29;;;;;;;5.13;2.80;;;14.30;71.90;15.90;101947.00;;;;5053698;28;20290;-69
2024/02/04 09:18:56;;;;;;;4.85;2.60;;;14.30;71.90;15.90;101944.00;;;;5050473;28;20200;-72
2024/02/04 09:21:23;;;;;;;3.30;3.00;;;14.30;72.00;15.90;101942.00;;;;5050802;28;20204;-75
2024/02/04 09:23:50;;;;;;;6.45;2.30;;;14.30;72.00;15.90;101952.00;;;;5052169;28;20196;-73
2024/02/04 09:26:17;;;;;;;2.85;1.77;;;14.30;72.00;15.90;101972.00;;;;5051918;28;20227;-72
2024/02/04 09:28:44;;;;;;;4.70;2.08;;;14.40;72.10;15.90;101958.00;;;;5051544;28;20459;-73
2024/02/04 09:31:13;;;;;;;3.92;1.58;;;14.40;72.10;15.90;101966.00;;;;5049101;28;20760;-72
2024/02/04 09:33:40;;;;;;;2.53;1.25;;;14.40;72.10;15.90;101964.00;;;;5052033;28;20742;-72
2024/02/04 09:36:08;;;;;;;2.88;1.30;;;14.40;72.10;15.90;101958.00;;;;5049636;28;20195;-72
2024/02/04 09:38:35;;;;;;;3.53;1.23;;;14.50;72.10;16.00;101954.00;;;;5050445;28;20278;-72
2024/02/04 09:41:04;;;;;;;2.63;1.20;;;14.50;72.00;16.00;101963.00;;;;5056182;28;20215;-71
2024/02/04 09:43:33;;;;;;;3.17;1.50;;;14.50;72.00;16.00;101966.00;;;;5046659;28;20304;-70
2024/02/04 09:46:01;;;;;;;3.08;1.33;;;14.60;72.00;16.10;101965.00;;;;5051065;28;20700;-71
2024/02/04 09:48:33;;;;;;;1.33;0.77;;;14.60;72.00;16.10;101959.00;;;;5048406;28;20230;-71
2024/02/04 09:51:01;;;;;;;3.03;1.23;;;14.70;72.00;16.20;101966.00;;;;5049859;28;20217;-71
2024/02/04 09:53:34;;;;;;;1.77;0.90;;;14.70;72.00;16.10;101969.00;;;;5051864;28;20213;-70
2024/02/04 09:56:06;;;;;;;3.95;1.10;;;14.70;71.90;16.20;101961.00;;;;5051778;28;20203;-70
2024/02/04 09:58:33;;;;;;;4.40;1.23;;;14.80;72.00;16.30;101954.00;;;;5050938;28;20187;-71
2024/02/04 10:01:01;;;;;;;1.30;0.88;;;14.80;71.90;16.30;101956.00;;;;5052134;28;20290;-70
2024/02/04 10:03:30;;;;;;;3.55;1.10;;;14.80;71.90;16.30;101958.00;;;;5051932;28;20195;-70
2024/02/04 10:05:57;;;;;;;3.00;0.80;;;14.90;71.80;16.40;101952.00;;;;5052377;28;20318;-71
2024/02/04 10:08:25;;;;;;;1.70;0.80;;;14.90;71.70;16.40;101959.00;;;;5051386;28;20226;-71
2024/02/04 10:10:54;;;;;;;2.65;0.68;;;14.90;71.70;16.40;101959.00;;;;5048638;28;20219;-72
2024/02/04 10:13:22;;;;;;;2.60;1.05;;;14.90;71.60;16.50;101965.00;;;;5051685;28;20195;-72
2024/02/04 10:15:49;;;;;;;1.15;0.90;;;15.00;71.50;16.50;101964.00;;;;5051221;28;20192;-71
2024/02/04 10:18:19;;;;;;;3.88;0.85;;;15.00;71.40;16.50;101960.00;;;;5047423;28;20201;-71
2024/02/04 10:20:47;;;;;;;0.90;0.52;;;15.00;71.40;16.50;101962.00;;;;5051407;28;20187;-72
2024/02/04 10:23:15;;;;;;;2.88;0.80;;;15.00;72.00;16.60;101969.00;;;;5050463;28;20199;-71
2024/02/04 10:25:42;;;;;;;2.05;0.50;;;15.00;71.20;16.60;101956.00;;;;5050428;28;20204;-72
2024/02/04 10:28:09;;;;;;;2.42;0.85;;;15.00;71.10;16.60;101953.00;;;;5049836;28;20192;-72
2024/02/04 10:30:39;;;;;;;1.83;0.73;;;15.10;71.10;16.60;101957.00;;;;5051973;28;20287;-71
2024/02/04 10:33:06;;;;;;;3.08;0.60;;;15.10;71.00;16.70;101959.00;;;;5051873;28;20198;-71
2024/02/04 10:35:33;;;;;;;1.60;0.47;;;15.10;71.00;16.70;101964.00;;;;5047473;28;20205;-71
2024/02/04 10:38:02;;;;;;;2.17;0.82;;;15.20;70.90;16.70;101963.00;;;;5049575;28;21192;-72
2024/02/04 10:40:29;;;;;;;2.15;0.55;;;15.20;70.70;16.70;101964.00;;;;5051597;28;20224;-71
2024/02/04 10:43:05;;;;;;;0.95;0.60;;;15.20;70.70;16.70;101972.00;;;;5037196;28;20227;-72
2024/02/04 10:45:39;;;;;;;2.70;0.52;;;15.20;70.60;16.70;101979.00;;;;5049937;28;20202;-73
2024/02/04 10:48:08;;;;;;;1.38;0.50;;;15.30;70.40;16.80;101992.00;;;;5050307;28;20258;-71